createdAt,value
2022-11-02T00:00:39.871Z,404.42
2022-11-02T00:01:39.898Z,403.99
2022-11-02T00:02:39.935Z,404.65
2022-11-02T00:03:39.850Z,405.25
2022-11-02T00:04:39.832Z,404.49
2022-11-02T00:05:39.821Z,405.61
2022-11-02T00:06:39.800Z,405.27
2022-11-02T00:07:39.796Z,404.26
2022-11-02T00:08:39.777Z,405.26
2022-11-02T00:09:39.784Z,405.72
2022-11-02T00:10:39.758Z,400.61
2022-11-02T00:11:39.749Z,400.60
2022-11-02T00:12:39.737Z,401.59
2022-11-02T00:13:39.743Z,400.29
2022-11-02T00:14:39.732Z,400.80
2022-11-02T00:15:39.697Z,400.62
2022-11-02T00:16:39.695Z,401.08
2022-11-02T00:17:39.684Z,401.26
2022-11-02T00:18:39.680Z,401.90
2022-11-02T00:19:39.657Z,401.40
2022-11-02T00:20:39.653Z,400.42
2022-11-02T00:21:39.637Z,401.54
2022-11-02T00:22:39.616Z,401.05
2022-11-02T00:23:39.641Z,400.40
2022-11-02T00:24:39.604Z,401.36
2022-11-02T00:25:39.606Z,401.88
2022-11-02T00:26:39.833Z,401.72
2022-11-02T00:27:39.565Z,401.13
2022-11-02T00:28:39.555Z,401.58
2022-11-02T00:29:39.566Z,400.61
2022-11-02T00:30:39.543Z,401.26
2022-11-02T00:31:39.542Z,402.04
2022-11-02T00:32:39.533Z,401.29
2022-11-02T00:33:39.529Z,401.08
2022-11-02T00:34:39.499Z,400.95
2022-11-02T00:35:39.501Z,399.93
2022-11-02T00:36:39.484Z,400.28
2022-11-02T00:37:39.456Z,401.03
2022-11-02T00:38:39.441Z,400.51
2022-11-02T00:39:39.439Z,401.96
2022-11-02T00:40:39.419Z,400.78
2022-11-02T00:41:39.425Z,400.08
2022-11-02T00:42:39.408Z,401.10
2022-11-02T00:43:39.400Z,401.74
2022-11-02T00:44:39.381Z,400.98
2022-11-02T00:45:39.382Z,400.76
2022-11-02T00:46:39.358Z,401.56
2022-11-02T00:47:39.365Z,401.17
2022-11-02T00:48:39.340Z,400.25
2022-11-02T00:49:39.327Z,401.40
2022-11-02T00:50:39.312Z,401.83
2022-11-02T00:51:39.303Z,400.64
2022-11-02T00:52:39.309Z,400.04
2022-11-02T00:53:39.280Z,400.47
2022-11-02T00:54:39.263Z,402.21
2022-11-02T00:55:39.262Z,401.52
2022-11-02T00:56:39.246Z,401.98
2022-11-02T00:57:39.241Z,401.83
2022-11-02T00:58:39.247Z,401.36
2022-11-02T00:59:39.215Z,401.28
2022-11-02T01:00:39.201Z,400.59
2022-11-02T01:01:39.318Z,402.82
2022-11-02T01:02:39.339Z,401.93
2022-11-02T01:03:39.169Z,401.66
2022-11-02T01:04:39.172Z,400.85
2022-11-02T01:05:39.148Z,402.47
2022-11-02T01:06:39.135Z,400.77
2022-11-02T01:07:39.136Z,400.27
2022-11-02T01:08:39.122Z,400.80
2022-11-02T01:09:39.109Z,401.12
2022-11-02T01:10:41.636Z,401.12
2022-11-02T01:11:40.083Z,400.47
2022-11-02T01:12:39.072Z,401.15
2022-11-02T01:13:39.052Z,401.39
2022-11-02T01:14:39.042Z,400.51
2022-11-02T01:15:39.037Z,400.53
2022-11-02T01:16:39.098Z,400.82
2022-11-02T01:17:39.026Z,401.49
2022-11-02T01:18:38.997Z,401.24
2022-11-02T01:19:38.987Z,400.96
2022-11-02T01:20:38.976Z,401.89
2022-11-02T01:21:38.969Z,399.94
2022-11-02T01:22:38.977Z,401.15
2022-11-02T01:23:38.944Z,401.51
2022-11-02T01:24:38.935Z,400.59
2022-11-02T01:25:38.930Z,402.59
2022-11-02T01:26:38.912Z,400.85
2022-11-02T01:27:38.909Z,400.23
2022-11-02T01:28:38.906Z,400.12
2022-11-02T01:29:38.889Z,401.71
2022-11-02T01:30:38.868Z,400.00
2022-11-02T01:31:38.876Z,400.52
2022-11-02T01:32:38.852Z,401.19
2022-11-02T01:33:38.845Z,402.03
2022-11-02T01:34:38.830Z,400.25
2022-11-02T01:35:38.821Z,401.80
2022-11-02T01:36:38.803Z,401.64
2022-11-02T01:37:38.789Z,400.79
2022-11-02T01:38:38.801Z,400.22
2022-11-02T01:39:38.771Z,401.09
2022-11-02T01:40:38.757Z,401.73
2022-11-02T01:41:38.751Z,400.50
2022-11-02T01:42:38.742Z,401.50
2022-11-02T01:43:38.725Z,401.49
2022-11-02T01:44:38.731Z,400.41
2022-11-02T01:45:38.709Z,401.43
2022-11-02T01:46:38.704Z,401.11
2022-11-02T01:47:38.680Z,401.57
2022-11-02T01:48:38.679Z,399.97
2022-11-02T01:49:38.661Z,400.53
2022-11-02T01:50:38.668Z,400.70
2022-11-02T01:51:38.653Z,400.84
2022-11-02T01:52:38.629Z,400.96
2022-11-02T01:53:38.616Z,400.14
2022-11-02T01:54:38.599Z,401.92
2022-11-02T01:55:38.624Z,403.16
2022-11-02T01:56:38.634Z,400.26
2022-11-02T01:57:38.583Z,400.89
2022-11-02T01:58:38.558Z,400.73
2022-11-02T01:59:38.546Z,401.94
2022-11-02T02:00:38.557Z,401.87
2022-11-02T02:01:38.663Z,401.28
2022-11-02T02:02:38.652Z,401.66
2022-11-02T02:03:38.495Z,400.78
2022-11-02T02:04:38.489Z,401.92
2022-11-02T02:05:38.490Z,400.99
2022-11-02T02:06:38.472Z,401.92
2022-11-02T02:07:38.475Z,400.86
2022-11-02T02:08:38.454Z,400.98
2022-11-02T02:09:38.436Z,401.93
2022-11-02T02:10:38.422Z,401.24
2022-11-02T02:11:38.422Z,402.13
2022-11-02T02:12:38.428Z,401.37
2022-11-02T02:13:38.391Z,402.26
2022-11-02T02:14:38.381Z,402.14
2022-11-02T02:15:38.371Z,401.78
2022-11-02T02:16:38.435Z,401.58
2022-11-02T02:17:38.350Z,401.99
2022-11-02T02:18:38.362Z,400.97
2022-11-02T02:19:38.325Z,401.76
2022-11-02T02:20:38.306Z,401.18
2022-11-02T02:21:38.315Z,401.50
2022-11-02T02:22:38.285Z,401.30
2022-11-02T02:23:38.295Z,401.48
2022-11-02T02:24:38.264Z,402.50
2022-11-02T02:25:38.276Z,403.80
2022-11-02T02:26:38.248Z,401.90
2022-11-02T02:27:38.248Z,401.69
2022-11-02T02:28:38.236Z,402.32
2022-11-02T02:29:38.227Z,402.26
2022-11-02T02:30:38.197Z,402.70
2022-11-02T02:31:38.199Z,401.06
2022-11-02T02:32:38.187Z,401.79
2022-11-02T02:33:38.168Z,401.61
2022-11-02T02:34:38.166Z,402.76
